createdAt,value
2022-08-09T00:00:46.263Z,0
2022-08-09T00:06:12.204Z,0
2022-08-09T00:12:03.322Z,0
2022-08-09T00:18:04.316Z,0
2022-08-09T00:23:54.307Z,0
2022-08-09T00:29:38.991Z,0
2022-08-09T00:35:49.649Z,0
2022-08-09T00:44:08.341Z,0
2022-08-09T00:49:52.734Z,0
2022-08-09T00:55:33.042Z,0
2022-08-09T01:01:44.234Z,0
2022-08-09T01:07:08.738Z,0
2022-08-09T01:12:36.492Z,0
2022-08-09T01:18:05.470Z,0
2022-08-09T01:24:01.404Z,0
2022-08-09T01:29:28.009Z,0
2022-08-09T01:35:18.354Z,0
2022-08-09T01:41:06.099Z,0
2022-08-09T01:46:28.498Z,0
2022-08-09T01:51:52.955Z,0
2022-08-09T01:57:20.455Z,0
2022-08-09T02:02:44.213Z,0
2022-08-09T02:08:36.622Z,0
2022-08-09T02:14:25.354Z,0
2022-08-09T02:20:01.159Z,0
2022-08-09T02:25:24.650Z,0
2022-08-09T02:30:50.337Z,0
2022-08-09T02:36:14.382Z,0
2022-08-09T02:41:41.044Z,0
2022-08-09T02:47:04.172Z,0
2022-08-09T02:52:27.131Z,0
2022-08-09T02:57:59.906Z,0
2022-08-09T03:04:13.676Z,0
2022-08-09T03:09:42.759Z,0
2022-08-09T03:15:22.872Z,0
2022-08-09T03:21:03.669Z,0
2022-08-09T03:26:29.389Z,0
2022-08-09T03:31:59.620Z,0
2022-08-09T03:37:55.023Z,0
2022-08-09T03:43:22.744Z,0
2022-08-09T03:48:51.109Z,0
2022-08-09T03:54:16.117Z,0
2022-08-09T03:59:43.390Z,0
2022-08-09T04:05:26.874Z,0
2022-08-09T04:11:02.702Z,0
2022-08-09T04:16:33.348Z,0.1
2022-08-09T04:21:57.329Z,0.1
2022-08-09T04:27:23.156Z,0.1
2022-08-09T04:32:45.980Z,0.1
2022-08-09T04:38:10.289Z,0.1
2022-08-09T05:15:38.900Z,0.2
2022-08-09T05:21:20.910Z,0.3
2022-08-09T05:27:15.143Z,0.3
2022-08-09T05:32:39.699Z,0.3
2022-08-09T05:38:21.872Z,0.3
2022-08-09T05:43:46.087Z,0.3
2022-08-09T05:49:34.016Z,0.4
2022-08-09T05:56:54.750Z,0.4
2022-08-09T06:02:19.702Z,1.7
2022-08-09T06:08:05.163Z,0.6
2022-08-09T06:13:34.405Z,0.6
2022-08-09T06:19:20.879Z,3.7
2022-08-09T06:24:45.280Z,1.7
2022-08-09T06:30:14.044Z,6.7
2022-08-09T06:35:56.722Z,3.6
2022-08-09T06:41:22.130Z,2.6
2022-08-09T06:47:40.178Z,3.5
2022-08-09T06:53:06.127Z,3.6
2022-08-09T06:58:41.051Z,3.9
2022-08-09T07:06:27.984Z,2.8
2022-08-09T07:11:57.145Z,3.6
2022-08-09T07:17:19.923Z,2.2
2022-08-09T07:22:46.512Z,4.5
2022-08-09T07:28:26.317Z,4.5
2022-08-09T07:33:52.417Z,5
2022-08-09T07:39:40.721Z,5.5
2022-08-09T07:45:37.228Z,4.3
2022-08-09T07:51:09.914Z,1.2
2022-08-09T07:57:46.713Z,1.5
2022-08-09T08:03:11.618Z,2.8
2022-08-09T08:08:44.990Z,3.1
2022-08-09T08:15:08.012Z,1.9
2022-08-09T08:20:38.489Z,1.3
2022-08-09T08:26:11.488Z,5.2
2022-08-09T08:32:02.915Z,5.5
2022-08-09T08:37:59.751Z,6
2022-08-09T08:43:36.061Z,6.3
2022-08-09T08:48:59.740Z,5.8
2022-08-09T08:54:28.151Z,6.1
2022-08-09T08:59:57.201Z,6.4
2022-08-09T09:05:26.223Z,6.4
2022-08-09T09:17:48.883Z,6
2022-08-09T09:23:15.931Z,6.3
2022-08-09T09:35:38.504Z,6.2
2022-08-09T09:41:23.252Z,6.4
2022-08-09T09:52:36.184Z,6.1
2022-08-09T09:58:16.013Z,7
2022-08-09T10:04:09.562Z,6.9
2022-08-09T10:09:33.074Z,6
2022-08-09T10:14:57.332Z,8.3
2022-08-09T10:20:26.759Z,7.9
2022-08-09T10:26:11.063Z,7.7
2022-08-09T10:32:28.565Z,7.2
2022-08-09T10:43:58.936Z,8.2
2022-08-09T10:49:42.674Z,8.1
2022-08-09T10:55:17.144Z,7.9
2022-08-09T11:00:51.194Z,7.2
2022-08-09T11:09:16.604Z,6.9
2022-08-09T11:14:40.118Z,7.4
2022-08-09T11:20:12.330Z,6.5
2022-08-09T11:25:47.431Z,7.3
2022-08-09T11:31:12.215Z,7
2022-08-09T11:36:59.720Z,7.3
2022-08-09T11:42:22.269Z,6.4
2022-08-09T11:47:44.632Z,7
2022-08-09T11:58:50.501Z,7.2
2022-08-09T12:04:20.707Z,7
2022-08-09T12:10:02.264Z,6.6
2022-08-09T12:15:48.487Z,6.5
2022-08-09T12:21:26.709Z,6.4
2022-08-09T12:29:01.219Z,6.8
2022-08-09T12:35:22.074Z,6.6
2022-08-09T12:40:44.319Z,7.7
2022-08-09T12:52:40.250Z,6.8
2022-08-09T12:58:57.681Z,6.2
2022-08-09T13:04:21.699Z,6.6
2022-08-09T13:15:44.013Z,6
2022-08-09T13:22:34.884Z,6.6
2022-08-09T13:30:03.396Z,7.6
2022-08-09T13:37:56.253Z,6.9
2022-08-09T13:43:21.149Z,6.8
2022-08-09T13:49:02.264Z,6.9
2022-08-09T13:54:41.607Z,7
2022-08-09T14:00:28.424Z,7.1
2022-08-09T14:05:57.623Z,7.3
2022-08-09T14:11:41.189Z,7.6
2022-08-09T14:17:11.999Z,7.7
2022-08-09T14:22:44.235Z,7.4
2022-08-09T14:28:07.348Z,7.2
2022-08-09T14:33:38.331Z,7.4
2022-08-09T14:39:03.351Z,7.1
2022-08-09T14:44:48.258Z,7.3
2022-08-09T14:50:23.513Z,6.9
2022-08-09T14:55:56.258Z,6.5
2022-08-09T15:01:19.898Z,6.6
2022-08-09T15:06:49.342Z,3.5
2022-08-09T15:12:16.031Z,0.8
2022-08-09T15:17:42.004Z,0.7
2022-08-09T15:23:56.390Z,0.6
2022-08-09T15:30:49.246Z,0.5
2022-08-09T15:36:41.227Z,0.5
2022-08-09T15:42:29.020Z,0.5
2022-08-09T15:47:52.748Z,0.4
2022-08-09T15:54:02.949Z,0.4
2022-08-09T16:00:05.711Z,0.4
2022-08-09T16:05:36.441Z,0.3
2022-08-09T16:11:26.081Z,0.3
2022-08-09T16:16:49.272Z,0.3
2022-08-09T16:22:16.943Z,0.3
2022-08-09T16:27:42.971Z,0.3
2022-08-09T16:33:16.246Z,0.3
2022-08-09T16:39:01.355Z,0.3
2022-08-09T16:44:31.584Z,0.3
2022-08-09T16:50:30.745Z,0.3
2022-08-09T16:56:03.831Z,0.3
2022-08-09T17:01:33.776Z,0.3
2022-08-09T17:07:10.098Z,0.2
2022-08-09T17:15:18.083Z,0.2
2022-08-09T17:21:25.673Z,0.2
2022-08-09T17:26:51.949Z,0.2
2022-08-09T17:32:20.133Z,0.2
2022-08-09T17:38:52.788Z,0.2
2022-08-09T17:44:39.179Z,0.2
2022-08-09T17:50:16.809Z,0.2
2022-08-09T17:56:03.446Z,0.2
2022-08-09T18:01:41.021Z,0.1
2022-08-09T18:07:53.414Z,0.1
2022-08-09T18:13:38.487Z,0.1
2022-08-09T18:20:53.079Z,0.1
2022-08-09T18:26:48.148Z,0.1
2022-08-09T18:32:11.928Z,0.1
2022-08-09T18:37:46.991Z,0.1
2022-08-09T18:43:17.993Z,0.1
2022-08-09T18:48:42.267Z,0.1
2022-08-09T18:54:06.537Z,0.1
2022-08-09T18:59:55.090Z,0.1
2022-08-09T19:05:28.467Z,0.1
2022-08-09T19:11:38.138Z,0
2022-08-09T19:17:01.121Z,0
2022-08-09T19:22:24.986Z,0
2022-08-09T19:27:50.936Z,0
2022-08-09T19:38:25.697Z,0
2022-08-09T19:43:58.463Z,0
2022-08-09T19:50:05.480Z,0
2022-08-09T19:56:17.323Z,0
2022-08-09T20:02:03.545Z,0
2022-08-09T20:09:53.087Z,0
2022-08-09T20:16:32.376Z,0
2022-08-09T20:22:19.617Z,0
2022-08-09T20:28:00.351Z,0
2022-08-09T20:33:23.161Z,0
2022-08-09T20:39:17.047Z,0
2022-08-09T20:45:58.803Z,0
2022-08-09T20:52:08.239Z,0
2022-08-09T20:58:05.098Z,0
2022-08-09T21:04:08.587Z,0
2022-08-09T21:18:12.460Z,0
2022-08-09T21:26:59.999Z,0
2022-08-09T21:33:24.584Z,0
2022-08-09T21:39:00.132Z,0
2022-08-09T21:45:08.898Z,0
2022-08-09T21:50:43.424Z,0
2022-08-09T21:56:15.073Z,0
2022-08-09T22:02:29.691Z,0
2022-08-09T22:08:05.496Z,0
2022-08-09T22:13:31.505Z,0
2022-08-09T22:26:05.180Z,0
2022-08-09T22:33:21.146Z,0
2022-08-09T22:39:20.612Z,0
2022-08-09T22:48:06.978Z,0
2022-08-09T22:54:03.009Z,0
2022-08-09T22:59:55.049Z,0
2022-08-09T23:05:28.340Z,0
2022-08-09T23:10:57.415Z,0
2022-08-09T23:16:19.906Z,0
2022-08-09T23:21:42.568Z,0
2022-08-09T23:27:05.424Z,0
2022-08-09T23:32:27.859Z,0
2022-08-09T23:37:50.115Z,0
2022-08-09T23:43:15.597Z,0
2022-08-09T23:48:38.075Z,0
2022-08-09T23:54:03.607Z,0
2022-08-09T23:59:41.386Z,0
